createdAt,value
2018-12-02T00:01:17.683Z,99944.34
2018-12-02T00:03:46.295Z,99944.43
2018-12-02T00:06:15.020Z,99938.69
2018-12-02T00:08:43.945Z,99933.97
2018-12-02T00:11:12.855Z,99926.83
2018-12-02T00:13:41.554Z,99928.88
2018-12-02T00:16:10.233Z,99924.56
2018-12-02T00:18:39.890Z,99917.02
2018-12-02T00:21:08.890Z,99914.19
2018-12-02T00:23:37.549Z,99911.92
2018-12-02T00:26:06.482Z,99911.92
2018-12-02T00:28:35.217Z,99910.42
2018-12-02T00:31:04.709Z,99911.16
2018-12-02T00:33:33.370Z,99903.25
2018-12-02T00:36:02.429Z,99904.97
2018-12-02T00:38:31.110Z,99896.84
2018-12-02T00:40:59.874Z,99896.66
2018-12-02T00:43:28.693Z,99891.84
2018-12-02T00:45:57.343Z,99885.55
2018-12-02T00:48:26.924Z,99880.20
2018-12-02T00:50:55.663Z,99876.88
2018-12-02T00:53:24.363Z,99875.56
2018-12-02T00:55:59.766Z,99862.11
2018-12-02T00:58:28.381Z,99859.75
2018-12-02T01:00:57.077Z,99858.25
2018-12-02T01:03:26.566Z,99855.89
2018-12-02T01:05:55.410Z,99850.48
2018-12-02T01:08:24.175Z,99846.08
2018-12-02T01:10:53.282Z,99836.17
2018-12-02T01:13:22.244Z,99830.91
2018-12-02T01:15:50.970Z,99829.98
2018-12-02T01:18:19.747Z,99825.27
2018-12-02T01:20:48.613Z,99825.27
2018-12-02T01:23:17.209Z,99821.13
2018-12-02T01:25:50.591Z,99819.35
2018-12-02T01:28:19.341Z,99812.45
2018-12-02T01:30:48.151Z,99810.22
2018-12-02T01:33:17.017Z,99819.44
2018-12-02T01:35:45.948Z,99816.31
2018-12-02T01:38:14.582Z,99817.20
2018-12-02T01:40:47.797Z,99815.30
2018-12-02T01:43:16.575Z,99815.77
2018-12-02T01:45:45.191Z,99814.27
2018-12-02T01:48:14.196Z,99801.76
2018-12-02T01:50:43.093Z,99802.80
2018-12-02T01:53:11.914Z,99800.17
2018-12-02T01:55:40.591Z,99794.89
2018-12-02T01:58:09.259Z,99793.76
2018-12-02T02:00:38.134Z,99799.77
2018-12-02T02:03:06.842Z,99791.49
2018-12-02T02:05:35.638Z,99783.77
2018-12-02T02:08:10.884Z,99773.99
2018-12-02T02:10:39.736Z,99768.72
2018-12-02T02:13:08.428Z,99762.38
2018-12-02T02:15:51.414Z,99761.25
2018-12-02T02:18:38.196Z,99757.18
2018-12-02T02:21:07.791Z,99761.98
2018-12-02T02:23:36.413Z,99763.95
2018-12-02T02:26:05.151Z,99758.55
2018-12-02T02:28:34.425Z,99756.20
2018-12-02T02:31:03.094Z,99751.29
2018-12-02T02:33:31.817Z,99743.84
2018-12-02T02:36:00.500Z,99740.44
2018-12-02T02:38:30.234Z,99733.13
2018-12-02T02:40:59.064Z,99726.54
2018-12-02T02:43:34.428Z,99726.91
2018-12-02T02:46:03.162Z,99723.05
2018-12-02T02:48:31.844Z,99715.42
2018-12-02T02:51:00.809Z,99717.44
2018-12-02T02:53:29.699Z,99714.28
2018-12-02T02:55:58.733Z,99708.62
2018-12-02T02:58:27.670Z,99712.44
2018-12-02T03:00:56.913Z,99707.53
2018-12-02T03:03:26.364Z,99702.27
2018-12-02T03:05:55.211Z,99710.44
2018-12-02T03:08:23.937Z,99707.98
2018-12-02T03:10:53.069Z,99706.27
2018-12-02T03:13:22.027Z,99702.39
2018-12-02T03:15:50.760Z,99708.66
2018-12-02T03:18:19.765Z,99694.63
2018-12-02T03:20:51.468Z,99690.95
2018-12-02T03:23:20.318Z,99684.64
2018-12-02T03:25:49.213Z,99685.67
2018-12-02T03:28:17.872Z,99682.36
2018-12-02T03:30:47.660Z,99678.19
2018-12-02T03:33:16.847Z,99679.22
2018-12-02T03:35:45.735Z,99665.61
2018-12-02T03:38:14.730Z,99664.39
2018-12-02T03:40:43.732Z,99660.98
2018-12-02T03:43:12.579Z,99657.06
2018-12-02T03:45:41.500Z,99653.29
2018-12-02T03:48:10.259Z,99651.89
2018-12-02T03:50:39.139Z,99648.16
2018-12-02T03:53:07.996Z,99638.83
2018-12-02T03:55:37.060Z,99634.14
2018-12-02T03:58:05.905Z,99632.83
2018-12-02T04:00:34.738Z,99628.11
2018-12-02T04:03:03.719Z,99628.97
2018-12-02T04:05:32.597Z,99625.77
2018-12-02T04:08:01.373Z,99625.13
2018-12-02T04:10:30.080Z,99620.98
2018-12-02T04:12:59.279Z,99613.47
2018-12-02T04:15:28.343Z,99603.49
2018-12-02T04:17:57.142Z,99608.39
2018-12-02T04:20:26.088Z,99605.76
2018-12-02T04:22:54.845Z,99601.90
2018-12-02T04:25:25.559Z,99598.41
2018-12-02T04:27:54.543Z,99596.73
2018-12-02T04:30:23.988Z,99591.84
2018-12-02T04:32:53.502Z,99584.34
2018-12-02T04:35:23.546Z,99589.70
2018-12-02T04:37:52.375Z,99577.86
2018-12-02T04:40:21.119Z,99582.09
2018-12-02T04:42:51.214Z,99574.11
2018-12-02T04:45:21.055Z,99574.20
2018-12-02T04:47:50.297Z,99567.98
2018-12-02T04:50:24.014Z,99570.70
2018-12-02T04:52:52.815Z,99568.20
2018-12-02T04:55:21.803Z,99559.92
2018-12-02T04:57:50.832Z,99558.14
2018-12-02T05:00:20.645Z,99562.95
2018-12-02T05:02:52.268Z,99557.28
2018-12-02T05:05:24.702Z,99555.15
2018-12-02T05:07:53.889Z,99549.03
2018-12-02T05:10:22.900Z,99539.91
2018-12-02T05:12:52.722Z,99539.15
2018-12-02T05:15:23.030Z,99535.11
2018-12-02T05:17:51.701Z,99533.44
2018-12-02T05:20:21.350Z,99530.34
2018-12-02T05:22:50.240Z,99531.17
2018-12-02T05:25:19.394Z,99520.28
2018-12-02T05:27:48.121Z,99511.45
2018-12-02T05:30:22.659Z,99515.48
2018-12-02T05:32:54.796Z,99501.96
2018-12-02T05:35:23.475Z,99490.41
2018-12-02T05:37:52.122Z,99482.52
2018-12-02T05:40:21.765Z,99476.03
2018-12-02T05:42:50.894Z,99471.72
2018-12-02T05:45:22.859Z,99472.09
2018-12-02T05:47:52.410Z,99474.26
2018-12-02T05:50:23.155Z,99472.66
2018-12-02T05:52:55.816Z,99466.28
2018-12-02T05:55:28.822Z,99468.99
2018-12-02T05:57:57.608Z,99468.81
2018-12-02T06:00:26.335Z,99467.13
2018-12-02T06:02:58.840Z,99459.16
2018-12-02T06:05:27.658Z,99460.83
2018-12-02T06:07:56.415Z,99459.52
2018-12-02T06:10:25.351Z,99464.31
2018-12-02T06:12:54.172Z,99456.80
2018-12-02T06:15:23.373Z,99458.11
2018-12-02T06:17:52.937Z,99457.16
2018-12-02T06:20:24.815Z,99458.02
2018-12-02T06:22:56.636Z,99456.61
2018-12-02T06:25:25.571Z,99464.41
2018-12-02T06:27:54.931Z,99461.31
2018-12-02T06:30:27.392Z,99454.09
2018-12-02T06:33:03.709Z,99446.66
2018-12-02T06:35:32.935Z,99449.47
2018-12-02T06:38:03.903Z,99446.74
2018-12-02T06:40:32.659Z,99449.28
2018-12-02T06:43:02.203Z,99451.45
2018-12-02T06:45:30.966Z,99440.38
2018-12-02T06:47:59.818Z,99434.45
2018-12-02T06:50:30.178Z,99431.27
2018-12-02T06:52:59.253Z,99433.70
2018-12-02T06:55:41.725Z,99428.62
2018-12-02T06:58:22.725Z,99434.27
2018-12-02T07:01:10.868Z,99438.49
2018-12-02T07:03:48.679Z,99435.78
2018-12-02T07:06:17.837Z,99429.66
2018-12-02T07:08:46.761Z,99433.06
2018-12-02T07:11:16.307Z,99430.88
2018-12-02T07:13:45.167Z,99425.62
2018-12-02T07:16:14.327Z,99425.26
2018-12-02T07:18:46.292Z,99427.89
2018-12-02T07:21:19.650Z,99420.91
2018-12-02T07:23:51.754Z,99426.58
2018-12-02T07:26:24.655Z,99428.81
2018-12-02T07:28:54.467Z,99428.42
2018-12-02T07:31:23.231Z,99430.23
2018-12-02T07:33:52.034Z,99431.91
2018-12-02T07:36:21.653Z,99425.43
2018-12-02T07:39:04.573Z,99419.31
2018-12-02T07:41:33.381Z,99429.85
2018-12-02T07:44:02.275Z,99429.64
2018-12-02T07:46:31.396Z,99421.30
2018-12-02T07:49:00.349Z,99424.86
2018-12-02T07:51:29.201Z,99423.55
2018-12-02T07:53:57.942Z,99420.91
2018-12-02T07:56:27.876Z,99420.81
2018-12-02T07:58:57.668Z,99416.97
2018-12-02T08:01:27.665Z,99415.45
2018-12-02T08:03:56.565Z,99423.16
2018-12-02T08:06:25.961Z,99423.55
2018-12-02T08:08:54.746Z,99427.86
2018-12-02T08:11:23.542Z,99420.23
2018-12-02T08:13:53.042Z,99420.80
2018-12-02T08:16:22.027Z,99425.77
2018-12-02T08:18:50.919Z,99426.83
2018-12-02T08:21:19.940Z,99425.87
2018-12-02T08:23:48.771Z,99426.99
2018-12-02T08:26:18.382Z,99432.09
2018-12-02T08:28:47.072Z,99425.61
2018-12-02T08:31:16.103Z,99420.74
2018-12-02T08:33:45.013Z,99424.09
2018-12-02T08:36:13.935Z,99418.08
2018-12-02T08:38:42.782Z,99429.73
2018-12-02T08:41:11.667Z,99419.40
2018-12-02T08:43:41.204Z,99423.91
2018-12-02T08:46:09.431Z,99426.18
2018-12-02T08:48:38.242Z,99425.12
2018-12-02T08:51:07.287Z,99428.69
2018-12-02T08:53:36.560Z,99425.30
2018-12-02T08:56:05.420Z,99429.54
2018-12-02T08:58:34.514Z,99431.88
2018-12-02T09:01:03.811Z,99424.83
2018-12-02T09:03:32.612Z,99426.05
2018-12-02T09:06:03.393Z,99433.26
2018-12-02T09:08:32.542Z,99425.75
2018-12-02T09:11:01.794Z,99430.06
2018-12-02T09:13:31.478Z,99426.77
2018-12-02T09:16:00.380Z,99442.44
2018-12-02T09:18:29.237Z,99434.34
2018-12-02T09:20:58.136Z,99425.67
2018-12-02T09:23:27.111Z,99421.91
2018-12-02T09:26:03.984Z,99430.63
2018-12-02T09:28:32.975Z,99427.94
2018-12-02T09:31:02.953Z,99422.57
2018-12-02T09:33:32.005Z,99428.70
2018-12-02T09:36:01.077Z,99424.34
2018-12-02T09:38:29.959Z,99435.38
2018-12-02T09:40:58.674Z,99431.33
2018-12-02T09:43:27.718Z,99430.73
2018-12-02T09:45:56.537Z,99427.18
2018-12-02T09:48:25.971Z,99438.08
2018-12-02T09:50:54.894Z,99431.29
2018-12-02T09:53:23.723Z,99439.55
2018-12-02T09:55:52.548Z,99438.53
2018-12-02T09:58:26.184Z,99447.09
2018-12-02T10:00:57.237Z,99443.14
2018-12-02T10:03:26.700Z,99447.61
2018-12-02T10:05:56.051Z,99445.27
2018-12-02T10:08:25.095Z,99441.31
2018-12-02T10:10:54.172Z,99448.16
2018-12-02T10:13:24.927Z,99444.76
2018-12-02T10:15:54.152Z,99449.47
2018-12-02T10:18:25.723Z,99450.19
2018-12-02T10:20:54.664Z,99449.98
2018-12-02T10:23:23.623Z,99440.38
2018-12-02T10:25:52.854Z,99439.86
2018-12-02T10:28:22.185Z,99440.97
2018-12-02T10:30:51.395Z,99433.96
2018-12-02T10:33:20.958Z,99431.81
2018-12-02T10:35:49.846Z,99432.50
2018-12-02T10:38:19.586Z,99431.06
2018-12-02T10:40:48.433Z,99430.22
2018-12-02T10:43:17.821Z,99433.98
2018-12-02T10:45:46.791Z,99425.00
2018-12-02T10:48:15.610Z,99415.81
2018-12-02T10:50:44.320Z,99413.54
2018-12-02T10:53:17.491Z,99417.91
2018-12-02T10:55:56.388Z,99418.66
2018-12-02T10:58:26.916Z,99417.84
2018-12-02T11:01:02.972Z,99423.17
2018-12-02T11:03:32.257Z,99411.32
2018-12-02T11:06:01.678Z,99417.00
2018-12-02T11:08:30.813Z,99410.58
2018-12-02T11:11:00.004Z,99415.75
2018-12-02T11:13:29.294Z,99410.10
2018-12-02T11:15:58.279Z,99414.10
2018-12-02T11:18:27.260Z,99420.95
2018-12-02T11:20:56.333Z,99419.39
2018-12-02T11:23:25.336Z,99421.45
2018-12-02T11:25:55.470Z,99418.67
2018-12-02T11:28:24.448Z,99415.91
2018-12-02T11:30:53.349Z,99420.38
2018-12-02T11:33:22.770Z,99423.61
2018-12-02T11:35:52.664Z,99423.41
2018-12-02T11:38:21.761Z,99431.11
2018-12-02T11:40:51.572Z,99435.92
2018-12-02T11:43:20.995Z,99424.71
2018-12-02T11:45:50.571Z,99433.53
2018-12-02T11:48:20.293Z,99436.66
2018-12-02T11:50:50.817Z,99438.58
2018-12-02T11:53:20.422Z,99435.58
2018-12-02T11:55:50.484Z,99440.62
2018-12-02T11:58:20.407Z,99434.23
2018-12-02T12:00:50.681Z,99443.16
2018-12-02T12:03:21.146Z,99446.88
2018-12-02T12:05:51.748Z,99445.55
2018-12-02T12:08:22.022Z,99446.16
2018-12-02T12:10:52.119Z,99450.40
2018-12-02T12:13:22.410Z,99452.44
2018-12-02T12:15:52.659Z,99457.50
2018-12-02T12:18:21.891Z,99453.77
2018-12-02T12:20:51.258Z,99457.36
2018-12-02T12:23:21.584Z,99463.18
2018-12-02T12:25:52.172Z,99461.61
2018-12-02T12:28:22.985Z,99457.52
2018-12-02T12:30:52.817Z,99464.97
2018-12-02T12:33:24.496Z,99460.87
2018-12-02T12:35:56.025Z,99464.12
2018-12-02T12:38:28.044Z,99463.40
2018-12-02T12:40:59.709Z,99466.43
2018-12-02T12:43:33.366Z,99468.94
2018-12-02T12:46:06.047Z,99467.97
2018-12-02T12:48:35.208Z,99466.14
2018-12-02T12:51:04.085Z,99468.80
2018-12-02T12:53:32.880Z,99468.67
2018-12-02T12:56:01.930Z,99474.58
2018-12-02T12:58:30.902Z,99476.63
2018-12-02T13:01:00.548Z,99475.55
2018-12-02T13:03:33.409Z,99479.62
2018-12-02T13:06:02.447Z,99477.11
2018-12-02T13:08:31.400Z,99481.20
2018-12-02T13:11:00.980Z,99480.95
2018-12-02T13:13:31.533Z,99482.53
2018-12-02T13:16:00.343Z,99484.95
2018-12-02T13:18:29.373Z,99487.13
2018-12-02T13:20:58.254Z,99488.20
2018-12-02T13:23:27.272Z,99492.31
2018-12-02T13:25:59.467Z,99490.97
2018-12-02T13:28:28.317Z,99496.73
2018-12-02T13:30:57.382Z,99498.92
2018-12-02T13:33:26.303Z,99500.73
2018-12-02T13:35:55.387Z,99495.42
2018-12-02T13:38:24.368Z,99503.34
2018-12-02T13:40:53.605Z,99502.52
2018-12-02T13:43:23.994Z,99499.39
2018-12-02T13:45:52.865Z,99502.55
2018-12-02T13:48:21.682Z,99512.30
2018-12-02T13:50:50.487Z,99517.37
2018-12-02T13:53:19.419Z,99526.17
2018-12-02T13:55:48.384Z,99527.61
2018-12-02T13:58:17.600Z,99533.17
2018-12-02T14:00:46.968Z,99539.91
2018-12-02T14:03:16.369Z,99536.66
2018-12-02T14:05:49.220Z,99536.91
2018-12-02T14:08:18.308Z,99542.20
2018-12-02T14:10:47.540Z,99539.92
2018-12-02T14:13:20.138Z,99533.55
2018-12-02T14:16:31.855Z,99551.72
2018-12-02T14:19:10.474Z,99553.50
2018-12-02T14:21:42.586Z,99550.77
2018-12-02T14:24:14.726Z,99552.18
2018-12-02T14:26:48.759Z,99557.86
2018-12-02T14:29:25.437Z,99564.88
2018-12-02T14:31:59.041Z,99564.20
2018-12-02T14:34:31.098Z,99567.47
2018-12-02T14:37:03.188Z,99564.67
2018-12-02T14:39:35.293Z,99566.63
2018-12-02T14:42:07.428Z,99564.91
2018-12-02T14:44:42.340Z,99572.16
2018-12-02T14:47:13.956Z,99565.54
2018-12-02T14:49:46.011Z,99567.21
2018-12-02T14:52:18.113Z,99569.51
2018-12-02T14:54:50.024Z,99576.48
2018-12-02T14:57:23.027Z,99570.48
2018-12-02T14:59:52.053Z,99573.01
2018-12-02T15:02:21.057Z,99576.36
2018-12-02T15:04:49.952Z,99579.98
2018-12-02T15:07:18.839Z,99583.23
2018-12-02T15:09:47.752Z,99586.73
2018-12-02T15:12:16.537Z,99588.15
2018-12-02T15:14:45.531Z,99588.50
2018-12-02T15:17:14.458Z,99591.11
2018-12-02T15:19:43.323Z,99591.73
2018-12-02T15:22:13.608Z,99593.64
2018-12-02T15:24:43.869Z,99600.15
2018-12-02T15:27:13.385Z,99601.70
2018-12-02T15:29:43.482Z,99607.83
2018-12-02T15:32:14.042Z,99602.64
2018-12-02T15:34:43.020Z,99606.27
2018-12-02T15:37:12.101Z,99601.20
2018-12-02T15:39:41.107Z,99602.41
2018-12-02T15:42:10.310Z,99598.55
2018-12-02T15:44:40.788Z,99606.96
2018-12-02T15:47:10.716Z,99604.47
2018-12-02T15:49:39.696Z,99603.23
2018-12-02T15:52:08.523Z,99600.23
2018-12-02T15:54:37.968Z,99607.20
2018-12-02T15:57:06.967Z,99608.33
2018-12-02T15:59:35.856Z,99609.89
2018-12-02T16:02:04.816Z,99610.13
2018-12-02T16:04:33.651Z,99611.83
2018-12-02T16:07:03.312Z,99610.28
2018-12-02T16:09:32.251Z,99617.48
2018-12-02T16:12:01.866Z,99618.23
2018-12-02T16:14:30.954Z,99617.88
2018-12-02T16:16:59.729Z,99614.98
2018-12-02T16:19:28.934Z,99616.70
2018-12-02T16:21:57.860Z,99617.76
2018-12-02T16:24:27.013Z,99618.03
2018-12-02T16:26:56.017Z,99621.50
2018-12-02T16:29:25.076Z,99620.41
2018-12-02T16:31:53.972Z,99617.76
2018-12-02T16:34:23.846Z,99614.75
2018-12-02T16:36:52.967Z,99618.22
2018-12-02T16:39:22.040Z,99616.78
2018-12-02T16:41:51.528Z,99615.58
2018-12-02T16:44:21.308Z,99610.13
2018-12-02T16:46:50.183Z,99615.42
2018-12-02T16:49:18.942Z,99615.92
2018-12-02T16:51:48.135Z,99617.36
2018-12-02T16:54:17.719Z,99619.04
2018-12-02T16:56:46.993Z,99613.98
2018-12-02T16:59:22.361Z,99618.19
2018-12-02T17:01:55.242Z,99607.31
2018-12-02T17:04:25.341Z,99609.14
2018-12-02T17:06:54.976Z,99605.64
2018-12-02T17:09:26.342Z,99606.50
2018-12-02T17:11:58.754Z,99609.61
2018-12-02T17:14:27.609Z,99610.35
2018-12-02T17:16:56.495Z,99609.84
2018-12-02T17:19:25.371Z,99615.19
2018-12-02T17:22:02.939Z,99618.19
2018-12-02T17:24:31.794Z,99611.33
2018-12-02T17:27:00.615Z,99618.69
2018-12-02T17:29:29.293Z,99621.92
2018-12-02T17:32:01.396Z,99612.89
2018-12-02T17:34:30.666Z,99619.66
2018-12-02T17:36:59.529Z,99620.75
2018-12-02T17:39:31.614Z,99620.25
2018-12-02T17:42:03.275Z,99625.08
2018-12-02T17:44:32.319Z,99631.58
2018-12-02T17:47:01.308Z,99626.17
2018-12-02T17:49:31.377Z,99637.23
2018-12-02T17:52:00.398Z,99629.41
2018-12-02T17:54:29.491Z,99624.45
2018-12-02T17:57:06.871Z,99632.56
2018-12-02T17:59:37.493Z,99629.68
2018-12-02T18:02:07.543Z,99633.15
2018-12-02T18:04:36.617Z,99633.15
2018-12-02T18:07:08.059Z,99643.74
2018-12-02T18:09:37.551Z,99641.48
2018-12-02T18:12:06.369Z,99638.95
2018-12-02T18:14:35.608Z,99648.11
2018-12-02T18:17:04.952Z,99652.23
2018-12-02T18:19:33.747Z,99648.73
2018-12-02T18:22:03.093Z,99648.38
2018-12-02T18:24:31.939Z,99652.73
2018-12-02T18:27:00.607Z,99644.17
2018-12-02T18:29:29.654Z,99651.30
2018-12-02T18:31:58.421Z,99660.22
2018-12-02T18:34:27.334Z,99667.08
2018-12-02T18:36:56.690Z,99664.91
2018-12-02T18:39:25.683Z,99664.55
2018-12-02T18:41:55.385Z,99671.05
2018-12-02T18:44:24.104Z,99671.17
2018-12-02T18:46:52.905Z,99674.18
2018-12-02T18:49:22.257Z,99670.94
2018-12-02T18:51:51.616Z,99679.13
2018-12-02T18:54:20.399Z,99674.30
2018-12-02T18:56:49.167Z,99679.00
2018-12-02T18:59:17.860Z,99680.45
2018-12-02T19:01:46.769Z,99676.83
2018-12-02T19:04:15.703Z,99680.87
2018-12-02T19:06:44.666Z,99681.97
2018-12-02T19:09:14.488Z,99679.36
2018-12-02T19:11:43.514Z,99687.77
2018-12-02T19:14:18.642Z,99687.77
2018-12-02T19:16:47.375Z,99687.19
2018-12-02T19:19:16.268Z,99685.86
2018-12-02T19:21:45.802Z,99686.57
2018-12-02T19:24:14.654Z,99686.95
2018-12-02T19:26:44.406Z,99681.50
2018-12-02T19:29:13.170Z,99680.80
2018-12-02T19:31:44.323Z,99677.91
2018-12-02T19:34:13.413Z,99679.23
2018-12-02T19:36:48.613Z,99678.85
2018-12-02T19:39:17.398Z,99680.91
2018-12-02T19:41:46.569Z,99670.70
2018-12-02T19:44:15.391Z,99673.83
2018-12-02T19:46:44.325Z,99673.55
2018-12-02T19:49:13.358Z,99672.85
2018-12-02T19:51:42.511Z,99669.46
2018-12-02T19:54:12.206Z,99677.76
2018-12-02T19:56:42.075Z,99679.08
2018-12-02T19:59:11.264Z,99678.22
2018-12-02T20:01:41.588Z,99673.73
2018-12-02T20:04:10.885Z,99666.02
2018-12-02T20:06:41.785Z,99665.52
2018-12-02T20:09:11.458Z,99667.81
2018-12-02T20:11:41.327Z,99661.19
2018-12-02T20:14:10.765Z,99662.98
2018-12-02T20:16:40.136Z,99660.56
2018-12-02T20:20:16.071Z,99655.14
2018-12-02T20:22:45.932Z,99647.77
2018-12-02T20:25:15.646Z,99652.91
2018-12-02T20:27:45.665Z,99656.88
2018-12-02T20:30:18.434Z,99652.31
2018-12-02T20:32:47.409Z,99651.69
2018-12-02T20:35:16.316Z,99651.93
2018-12-02T20:37:45.396Z,99656.02
2018-12-02T20:40:17.501Z,99650.36
2018-12-02T20:42:47.089Z,99653.25
2018-12-02T20:45:17.214Z,99652.78
2018-12-02T20:47:46.295Z,99649.17
2018-12-02T20:50:17.428Z,99647.38
2018-12-02T20:52:47.031Z,99647.27
2018-12-02T20:55:24.778Z,99644.26
2018-12-02T20:57:56.367Z,99652.91
2018-12-02T21:00:25.465Z,99650.65
2018-12-02T21:02:59.702Z,99646.45
2018-12-02T21:05:36.307Z,99639.83
2018-12-02T21:08:05.495Z,99641.03
2018-12-02T21:10:34.615Z,99632.36
2018-12-02T21:13:03.730Z,99626.98
2018-12-02T21:15:32.831Z,99623.72
2018-12-02T21:18:01.733Z,99624.22
2018-12-02T21:20:30.665Z,99626.02
2018-12-02T21:22:59.557Z,99625.54
2018-12-02T21:25:28.888Z,99623.98
2018-12-02T21:27:57.732Z,99624.80
2018-12-02T21:30:28.172Z,99618.58
2018-12-02T21:32:57.300Z,99623.02
2018-12-02T21:35:26.321Z,99624.22
2018-12-02T21:37:57.718Z,99615.07
2018-12-02T21:40:29.412Z,99617.25
2018-12-02T21:43:00.112Z,99614.59
2018-12-02T21:45:30.713Z,99612.42
2018-12-02T21:48:00.697Z,99613.39
2018-12-02T21:50:33.277Z,99609.30
2018-12-02T21:53:04.785Z,99609.42
2018-12-02T21:55:34.813Z,99605.91
2018-12-02T21:58:05.001Z,99605.45
2018-12-02T22:00:40.730Z,99601.83
2018-12-02T22:03:11.518Z,99603.63
2018-12-02T22:08:14.309Z,99605.67
2018-12-02T22:10:44.596Z,99600.50
2018-12-02T22:13:15.631Z,99601.94
2018-12-02T22:15:46.359Z,99597.85
2018-12-02T22:18:16.064Z,99600.97
2018-12-02T22:20:46.041Z,99597.34
2018-12-02T22:23:15.991Z,99596.41
2018-12-02T22:25:49.484Z,99597.84
2018-12-02T22:28:20.653Z,99599.25
2018-12-02T22:30:51.081Z,99605.45
2018-12-02T22:33:21.091Z,99604.36
2018-12-02T22:35:50.479Z,99600.62
2018-12-02T22:38:20.799Z,99601.36
2018-12-02T22:40:50.793Z,99600.50
2018-12-02T22:43:20.944Z,99601.23
2018-12-02T22:45:52.963Z,99601.00
2018-12-02T22:48:26.045Z,99594.23
2018-12-02T22:50:58.334Z,99597.50
2018-12-02T22:53:31.359Z,99601.20
2018-12-02T22:56:05.327Z,99607.13
2018-12-02T22:58:38.461Z,99610.00
2018-12-02T23:01:14.293Z,99615.66
2018-12-02T23:03:45.768Z,99604.13
2018-12-02T23:06:16.256Z,99608.21
2018-12-02T23:08:46.852Z,99613.00
2018-12-02T23:11:17.551Z,99618.19
2018-12-02T23:13:48.641Z,99613.73
2018-12-02T23:16:19.456Z,99611.17
2018-12-02T23:18:49.775Z,99613.46
2018-12-02T23:21:20.979Z,99615.95
2018-12-02T23:23:53.188Z,99611.47
2018-12-02T23:26:25.651Z,99606.17
2018-12-02T23:28:55.824Z,99607.02
2018-12-02T23:31:27.289Z,99598.10
2018-12-02T23:33:57.260Z,99580.27
2018-12-02T23:36:26.253Z,99572.91
2018-12-02T23:38:55.233Z,99573.49
2018-12-02T23:41:24.329Z,99571.81
2018-12-02T23:43:53.292Z,99572.67
2018-12-02T23:48:58.660Z,99595.17
2018-12-02T23:51:27.500Z,99590.34
2018-12-02T23:53:56.448Z,99586.38
2018-12-02T23:56:25.435Z,99581.06
2018-12-02T23:58:54.410Z,99583.09
